Main page
METAR-TAF:

METAR-TAF

Airports :

Duong Dong Airport

Phú Quốc, Vietnam

latitude: 10-10-18N, longitude: 103-59-28E, elevation: 11 m

Current weather observation

The report was made 40 minutes ago, at 02:30 UTC
Wind 7 kt from the East, varying between North/Northeast and East/Southeast
Temperature 32°C
Humidity 63%
Pressure 1009 hPa
Visibility 10 km or more
Few clouds at a height of 1700 ft

METAR: VVPQ 230230Z 08007KT 030V110 9999 FEW017 32/24 Q1009 NOSIG

Time: 10:10 (03:10 UTC)

Forecast

The report was made 4 hours and 10 minutes ago, at 23:00 UTC
Forecast valid from 23 at 00 UTC to 23 at 24 UTC
Wind 3 kt from variable directions
Visibility 10 km or more
Scattered clouds at a height of 1700 ft
Becoming
from 23 at 01 UTC to 23 at 02 UTC
Wind 10 kt from the East/Southeast

TAF: VVPQ 222300Z 2300/2324 VRB03KT 9999 SCT017 BECMG 2301/2302 12010KT

Weather observations and forecasts of more than 4000 airports (METAR and TAF reports).

The available stations are represented by yellow and red dots on the map.

Hover mouse over dot to see the name of the station.

Then click to see weather observations and forecasts.

To change the map : click on the green buttons with a black cross to zoom in, on the green button with a dash to zoom out, or on the green arrows for adjacent maps.


METAR-TAF: